sensor_id;sensor_type;location;lat;lon;timestamp;P1;durP1;ratioP1;P2;durP2;ratioP2
17763;SDS011;22245;52.832;13.816;2024-01-16T00:03:01;1.63;;;0.80;;
17763;SDS011;22245;52.832;13.816;2024-01-16T00:06:23;2.60;;;0.90;;
17763;SDS011;22245;52.832;13.816;2024-01-16T00:09:45;2.43;;;0.87;;
17763;SDS011;22245;52.832;13.816;2024-01-16T00:13:07;2.43;;;0.80;;
17763;SDS011;22245;52.832;13.816;2024-01-16T00:16:28;4.83;;;1.00;;
17763;SDS011;22245;52.832;13.816;2024-01-16T00:19:49;1.93;;;0.80;;
17763;SDS011;22245;52.832;13.816;2024-01-16T00:23:12;2.27;;;0.90;;
17763;SDS011;22245;52.832;13.816;2024-01-16T00:26:33;5.23;;;1.50;;
17763;SDS011;22245;52.832;13.816;2024-01-16T00:29:55;2.40;;;1.13;;
17763;SDS011;22245;52.832;13.816;2024-01-16T00:33:16;4.43;;;1.30;;
17763;SDS011;22245;52.832;13.816;2024-01-16T00:36:38;2.60;;;0.80;;
17763;SDS011;22245;52.832;13.816;2024-01-16T00:40:01;1.80;;;0.83;;
17763;SDS011;22245;52.832;13.816;2024-01-16T00:43:24;3.37;;;1.10;;
17763;SDS011;22245;52.832;13.816;2024-01-16T00:46:45;4.13;;;1.23;;
17763;SDS011;22245;52.832;13.816;2024-01-16T00:50:07;3.27;;;0.83;;
17763;SDS011;22245;52.832;13.816;2024-01-16T00:53:29;4.40;;;1.13;;
17763;SDS011;22245;52.832;13.816;2024-01-16T00:56:53;2.03;;;1.00;;
17763;SDS011;22245;52.832;13.816;2024-01-16T01:00:19;2.10;;;0.83;;
17763;SDS011;22245;52.832;13.816;2024-01-16T01:03:41;3.80;;;1.00;;
17763;SDS011;22245;52.832;13.816;2024-01-16T01:07:03;3.67;;;1.10;;
17763;SDS011;22245;52.832;13.816;2024-01-16T01:10:24;2.80;;;0.90;;
17763;SDS011;22245;52.832;13.816;2024-01-16T01:13:48;2.90;;;1.30;;
17763;SDS011;22245;52.832;13.816;2024-01-16T01:17:10;2.70;;;0.80;;
17763;SDS011;22245;52.832;13.816;2024-01-16T01:20:31;2.83;;;0.93;;
17763;SDS011;22245;52.832;13.816;2024-01-16T01:23:53;1.70;;;0.90;;
17763;SDS011;22245;52.832;13.816;2024-01-16T01:27:14;1.90;;;0.73;;
17763;SDS011;22245;52.832;13.816;2024-01-16T01:30:37;4.87;;;1.13;;
17763;SDS011;22245;52.832;13.816;2024-01-16T01:33:59;3.43;;;0.90;;
17763;SDS011;22245;52.832;13.816;2024-01-16T01:37:21;2.10;;;0.80;;
17763;SDS011;22245;52.832;13.816;2024-01-16T01:40:42;3.70;;;1.00;;
17763;SDS011;22245;52.832;13.816;2024-01-16T01:44:03;1.83;;;0.93;;
17763;SDS011;22245;52.832;13.816;2024-01-16T01:47:26;2.83;;;1.23;;
17763;SDS011;22245;52.832;13.816;2024-01-16T01:50:48;5.17;;;1.17;;
17763;SDS011;22245;52.832;13.816;2024-01-16T01:54:11;3.07;;;1.13;;
17763;SDS011;22245;52.832;13.816;2024-01-16T01:57:33;5.90;;;1.37;;
17763;SDS011;22245;52.832;13.816;2024-01-16T02:00:55;1.87;;;1.00;;
17763;SDS011;22245;52.832;13.816;2024-01-16T02:04:19;4.77;;;1.23;;
17763;SDS011;22245;52.832;13.816;2024-01-16T02:07:41;3.77;;;1.10;;
17763;SDS011;22245;52.832;13.816;2024-01-16T02:11:03;3.77;;;1.00;;
17763;SDS011;22245;52.832;13.816;2024-01-16T02:14:25;3.57;;;1.10;;
17763;SDS011;22245;52.832;13.816;2024-01-16T02:17:47;1.30;;;0.90;;
17763;SDS011;22245;52.832;13.816;2024-01-16T02:21:10;3.60;;;1.30;;
17763;SDS011;22245;52.832;13.816;2024-01-16T02:24:34;5.10;;;1.30;;
17763;SDS011;22245;52.832;13.816;2024-01-16T02:27:55;2.50;;;1.10;;
17763;SDS011;22245;52.832;13.816;2024-01-16T02:31:17;1.13;;;0.80;;
17763;SDS011;22245;52.832;13.816;2024-01-16T02:34:39;3.17;;;1.17;;
17763;SDS011;22245;52.832;13.816;2024-01-16T02:38:00;3.30;;;1.10;;
17763;SDS011;22245;52.832;13.816;2024-01-16T02:41:23;1.80;;;1.10;;
17763;SDS011;22245;52.832;13.816;2024-01-16T02:44:45;2.87;;;1.30;;
17763;SDS011;22245;52.832;13.816;2024-01-16T02:48:07;2.57;;;1.20;;
17763;SDS011;22245;52.832;13.816;2024-01-16T02:51:29;1.97;;;1.00;;
17763;SDS011;22245;52.832;13.816;2024-01-16T02:54:51;3.07;;;1.20;;
17763;SDS011;22245;52.832;13.816;2024-01-16T02:58:16;2.90;;;1.10;;
17763;SDS011;22245;52.832;13.816;2024-01-16T03:01:38;6.27;;;1.40;;
17763;SDS011;22245;52.832;13.816;2024-01-16T03:04:59;10.77;;;2.70;;
17763;SDS011;22245;52.832;13.816;2024-01-16T03:08:23;11.10;;;4.27;;
17763;SDS011;22245;52.832;13.816;2024-01-16T03:11:45;7.20;;;2.60;;
17763;SDS011;22245;52.832;13.816;2024-01-16T03:15:08;10.23;;;2.43;;
17763;SDS011;22245;52.832;13.816;2024-01-16T03:18:30;4.03;;;1.37;;
17763;SDS011;22245;52.832;13.816;2024-01-16T03:21:52;5.97;;;1.60;;
17763;SDS011;22245;52.832;13.816;2024-01-16T03:25:13;4.77;;;1.60;;
17763;SDS011;22245;52.832;13.816;2024-01-16T03:28:35;7.73;;;2.47;;
17763;SDS011;22245;52.832;13.816;2024-01-16T03:31:57;10.93;;;3.43;;
17763;SDS011;22245;52.832;13.816;2024-01-16T03:35:19;6.67;;;2.60;;
17763;SDS011;22245;52.832;13.816;2024-01-16T03:38:41;6.40;;;2.70;;
17763;SDS011;22245;52.832;13.816;2024-01-16T03:42:03;6.30;;;2.17;;
17763;SDS011;22245;52.832;13.816;2024-01-16T03:45:25;5.47;;;2.40;;
17763;SDS011;22245;52.832;13.816;2024-01-16T03:48:48;10.53;;;2.80;;
17763;SDS011;22245;52.832;13.816;2024-01-16T03:52:10;7.33;;;1.87;;
17763;SDS011;22245;52.832;13.816;2024-01-16T03:55:32;6.10;;;2.03;;
17763;SDS011;22245;52.832;13.816;2024-01-16T03:58:53;7.63;;;1.67;;
17763;SDS011;22245;52.832;13.816;2024-01-16T04:02:15;5.43;;;2.00;;
17763;SDS011;22245;52.832;13.816;2024-01-16T04:05:37;8.20;;;1.83;;
17763;SDS011;22245;52.832;13.816;2024-01-16T04:08:59;3.13;;;1.20;;
17763;SDS011;22245;52.832;13.816;2024-01-16T04:12:21;4.57;;;1.00;;
17763;SDS011;22245;52.832;13.816;2024-01-16T04:15:43;2.80;;;1.07;;
17763;SDS011;22245;52.832;13.816;2024-01-16T04:19:05;4.83;;;1.20;;
17763;SDS011;22245;52.832;13.816;2024-01-16T04:22:28;3.90;;;1.13;;
17763;SDS011;22245;52.832;13.816;2024-01-16T04:25:49;7.20;;;1.03;;
17763;SDS011;22245;52.832;13.816;2024-01-16T04:29:11;2.93;;;1.40;;
17763;SDS011;22245;52.832;13.816;2024-01-16T04:32:34;4.77;;;1.20;;
17763;SDS011;22245;52.832;13.816;2024-01-16T04:35:56;3.87;;;1.43;;
17763;SDS011;22245;52.832;13.816;2024-01-16T04:39:19;5.30;;;1.57;;
17763;SDS011;22245;52.832;13.816;2024-01-16T04:42:42;7.50;;;1.63;;
17763;SDS011;22245;52.832;13.816;2024-01-16T04:46:04;3.93;;;1.60;;
17763;SDS011;22245;52.832;13.816;2024-01-16T04:49:25;5.50;;;1.90;;
17763;SDS011;22245;52.832;13.816;2024-01-16T04:52:47;3.63;;;1.40;;
17763;SDS011;22245;52.832;13.816;2024-01-16T04:56:14;4.30;;;1.60;;
17763;SDS011;22245;52.832;13.816;2024-01-16T04:59:36;4.67;;;1.53;;
17763;SDS011;22245;52.832;13.816;2024-01-16T05:02:57;5.20;;;1.80;;
17763;SDS011;22245;52.832;13.816;2024-01-16T05:06:19;2.87;;;1.50;;
17763;SDS011;22245;52.832;13.816;2024-01-16T05:09:41;3.27;;;1.50;;
17763;SDS011;22245;52.832;13.816;2024-01-16T05:13:07;5.67;;;1.70;;
17763;SDS011;22245;52.832;13.816;2024-01-16T05:16:28;2.77;;;1.47;;
17763;SDS011;22245;52.832;13.816;2024-01-16T05:19:50;4.40;;;1.60;;
17763;SDS011;22245;52.832;13.816;2024-01-16T05:23:11;6.57;;;2.33;;
17763;SDS011;22245;52.832;13.816;2024-01-16T05:26:32;2.80;;;1.60;;
17763;SDS011;22245;52.832;13.816;2024-01-16T05:29:55;4.00;;;1.90;;
17763;SDS011;22245;52.832;13.816;2024-01-16T05:33:17;3.67;;;1.90;;
17763;SDS011;22245;52.832;13.816;2024-01-16T05:36:39;4.57;;;1.90;;
17763;SDS011;22245;52.832;13.816;2024-01-16T05:40:01;3.83;;;1.80;;
17763;SDS011;22245;52.832;13.816;2024-01-16T05:43:23;6.07;;;2.17;;
17763;SDS011;22245;52.832;13.816;2024-01-16T05:46:46;3.70;;;1.80;;
17763;SDS011;22245;52.832;13.816;2024-01-16T05:50:07;6.83;;;1.83;;
17763;SDS011;22245;52.832;13.816;2024-01-16T05:53:29;14.23;;;4.60;;
17763;SDS011;22245;52.832;13.816;2024-01-16T06:00:38;2.67;;;1.57;;
17763;SDS011;22245;52.832;13.816;2024-01-16T06:04:02;4.10;;;1.60;;
17763;SDS011;22245;52.832;13.816;2024-01-16T06:07:23;6.60;;;1.90;;
17763;SDS011;22245;52.832;13.816;2024-01-16T06:10:46;3.70;;;1.80;;
17763;SDS011;22245;52.832;13.816;2024-01-16T06:14:07;2.93;;;1.60;;
17763;SDS011;22245;52.832;13.816;2024-01-16T06:17:29;2.53;;;1.40;;
17763;SDS011;22245;52.832;13.816;2024-01-16T06:20:53;8.30;;;1.80;;
17763;SDS011;22245;52.832;13.816;2024-01-16T06:24:15;4.77;;;1.73;;
17763;SDS011;22245;52.832;13.816;2024-01-16T06:27:36;6.33;;;2.23;;
17763;SDS011;22245;52.832;13.816;2024-01-16T06:30:58;4.53;;;1.73;;
17763;SDS011;22245;52.832;13.816;2024-01-16T06:34:20;3.67;;;1.70;;
17763;SDS011;22245;52.832;13.816;2024-01-16T06:37:43;4.63;;;1.90;;
17763;SDS011;22245;52.832;13.816;2024-01-16T06:41:04;7.37;;;2.13;;
17763;SDS011;22245;52.832;13.816;2024-01-16T06:44:26;3.07;;;1.90;;
17763;SDS011;22245;52.832;13.816;2024-01-16T06:47:47;5.03;;;1.80;;
17763;SDS011;22245;52.832;13.816;2024-01-16T06:51:11;5.53;;;1.60;;
17763;SDS011;22245;52.832;13.816;2024-01-16T06:54:35;6.37;;;2.00;;
17763;SDS011;22245;52.832;13.816;2024-01-16T06:57:56;6.73;;;3.13;;
17763;SDS011;22245;52.832;13.816;2024-01-16T07:01:18;3.90;;;1.93;;
17763;SDS011;22245;52.832;13.816;2024-01-16T07:04:39;5.90;;;2.23;;
17763;SDS011;22245;52.832;13.816;2024-01-16T07:08:00;4.93;;;1.83;;
17763;SDS011;22245;52.832;13.816;2024-01-16T07:11:24;5.40;;;1.83;;
17763;SDS011;22245;52.832;13.816;2024-01-16T07:14:45;4.20;;;2.10;;
17763;SDS011;22245;52.832;13.816;2024-01-16T07:18:07;6.73;;;2.23;;
17763;SDS011;22245;52.832;13.816;2024-01-16T07:21:29;4.53;;;1.60;;
17763;SDS011;22245;52.832;13.816;2024-01-16T07:24:50;3.03;;;1.97;;
17763;SDS011;22245;52.832;13.816;2024-01-16T07:28:13;4.57;;;1.70;;
17763;SDS011;22245;52.832;13.816;2024-01-16T07:31:34;4.10;;;1.50;;
17763;SDS011;22245;52.832;13.816;2024-01-16T07:34:55;7.03;;;1.90;;
17763;SDS011;22245;52.832;13.816;2024-01-16T07:38:17;7.50;;;2.40;;
17763;SDS011;22245;52.832;13.816;2024-01-16T07:41:39;3.30;;;2.00;;
17763;SDS011;22245;52.832;13.816;2024-01-16T07:45:03;11.10;;;3.50;;
17763;SDS011;22245;52.832;13.816;2024-01-16T07:48:25;13.40;;;3.97;;
17763;SDS011;22245;52.832;13.816;2024-01-16T07:51:47;8.80;;;2.40;;
17763;SDS011;22245;52.832;13.816;2024-01-16T07:55:08;5.37;;;2.30;;
17763;SDS011;22245;52.832;13.816;2024-01-16T07:58:30;3.27;;;1.70;;
17763;SDS011;22245;52.832;13.816;2024-01-16T08:01:53;2.63;;;1.60;;
17763;SDS011;22245;52.832;13.816;2024-01-16T08:05:15;3.07;;;1.83;;
17763;SDS011;22245;52.832;13.816;2024-01-16T08:08:37;6.13;;;2.30;;
17763;SDS011;22245;52.832;13.816;2024-01-16T08:11:58;7.10;;;2.30;;
17763;SDS011;22245;52.832;13.816;2024-01-16T08:15:22;4.23;;;2.00;;
17763;SDS011;22245;52.832;13.816;2024-01-16T08:18:44;4.73;;;1.80;;
17763;SDS011;22245;52.832;13.816;2024-01-16T08:22:06;8.73;;;3.67;;
17763;SDS011;22245;52.832;13.816;2024-01-16T08:25:28;5.10;;;2.57;;
17763;SDS011;22245;52.832;13.816;2024-01-16T08:28:49;5.90;;;2.30;;
17763;SDS011;22245;52.832;13.816;2024-01-16T08:32:11;5.17;;;1.90;;
17763;SDS011;22245;52.832;13.816;2024-01-16T08:35:34;4.73;;;2.30;;
17763;SDS011;22245;52.832;13.816;2024-01-16T08:38:56;4.03;;;2.00;;
17763;SDS011;22245;52.832;13.816;2024-01-16T08:42:18;5.60;;;1.90;;
17763;SDS011;22245;52.832;13.816;2024-01-16T08:45:40;6.30;;;3.37;;
17763;SDS011;22245;52.832;13.816;2024-01-16T08:49:02;6.17;;;2.67;;
17763;SDS011;22245;52.832;13.816;2024-01-16T08:56:11;4.63;;;2.07;;
17763;SDS011;22245;52.832;13.816;2024-01-16T08:59:33;10.07;;;3.73;;
17763;SDS011;22245;52.832;13.816;2024-01-16T09:02:55;10.20;;;2.70;;
17763;SDS011;22245;52.832;13.816;2024-01-16T09:06:19;6.47;;;3.40;;
17763;SDS011;22245;52.832;13.816;2024-01-16T09:09:42;9.70;;;3.87;;
17763;SDS011;22245;52.832;13.816;2024-01-16T09:13:04;7.93;;;3.97;;
17763;SDS011;22245;52.832;13.816;2024-01-16T09:16:25;9.27;;;4.17;;
17763;SDS011;22245;52.832;13.816;2024-01-16T09:19:47;6.87;;;2.90;;
17763;SDS011;22245;52.832;13.816;2024-01-16T09:23:08;4.27;;;2.60;;
17763;SDS011;22245;52.832;13.816;2024-01-16T09:26:32;11.93;;;3.40;;
17763;SDS011;22245;52.832;13.816;2024-01-16T09:29:54;5.90;;;2.67;;
17763;SDS011;22245;52.832;13.816;2024-01-16T09:33:16;6.27;;;2.73;;
17763;SDS011;22245;52.832;13.816;2024-01-16T09:36:37;8.13;;;2.67;;
17763;SDS011;22245;52.832;13.816;2024-01-16T09:39:59;9.67;;;3.20;;
17763;SDS011;22245;52.832;13.816;2024-01-16T09:43:21;7.87;;;3.10;;
17763;SDS011;22245;52.832;13.816;2024-01-16T09:46:44;7.73;;;3.10;;
17763;SDS011;22245;52.832;13.816;2024-01-16T09:50:07;4.70;;;2.57;;
17763;SDS011;22245;52.832;13.816;2024-01-16T09:53:29;6.87;;;2.77;;
17763;SDS011;22245;52.832;13.816;2024-01-16T09:56:51;8.50;;;3.20;;
17763;SDS011;22245;52.832;13.816;2024-01-16T10:00:16;8.33;;;3.47;;
17763;SDS011;22245;52.832;13.816;2024-01-16T10:03:38;5.60;;;2.77;;
17763;SDS011;22245;52.832;13.816;2024-01-16T10:07:05;6.73;;;2.83;;
17763;SDS011;22245;52.832;13.816;2024-01-16T10:10:30;4.93;;;2.77;;
17763;SDS011;22245;52.832;13.816;2024-01-16T10:14:06;8.40;;;3.27;;
17763;SDS011;22245;52.832;13.816;2024-01-16T10:17:37;8.13;;;3.20;;
17763;SDS011;22245;52.832;13.816;2024-01-16T10:20:59;5.03;;;3.20;;
17763;SDS011;22245;52.832;13.816;2024-01-16T10:24:21;6.37;;;3.47;;
17763;SDS011;22245;52.832;13.816;2024-01-16T10:27:42;7.37;;;3.60;;
17763;SDS011;22245;52.832;13.816;2024-01-16T10:31:05;8.00;;;3.33;;
17763;SDS011;22245;52.832;13.816;2024-01-16T10:34:30;6.20;;;3.50;;
17763;SDS011;22245;52.832;13.816;2024-01-16T10:37:52;6.00;;;3.60;;
17763;SDS011;22245;52.832;13.816;2024-01-16T10:41:14;9.40;;;4.13;;
17763;SDS011;22245;52.832;13.816;2024-01-16T10:44:38;7.83;;;3.83;;
17763;SDS011;22245;52.832;13.816;2024-01-16T10:48:14;9.60;;;4.07;;
17763;SDS011;22245;52.832;13.816;2024-01-16T10:51:38;8.07;;;4.40;;
17763;SDS011;22245;52.832;13.816;2024-01-16T10:55:04;7.30;;;4.03;;
17763;SDS011;22245;52.832;13.816;2024-01-16T10:58:30;7.27;;;4.17;;
17763;SDS011;22245;52.832;13.816;2024-01-16T11:01:53;13.90;;;6.00;;
17763;SDS011;22245;52.832;13.816;2024-01-16T11:05:17;9.93;;;5.23;;
17763;SDS011;22245;52.832;13.816;2024-01-16T11:08:41;32.93;;;8.23;;
17763;SDS011;22245;52.832;13.816;2024-01-16T11:12:03;12.23;;;5.20;;
17763;SDS011;22245;52.832;13.816;2024-01-16T11:15:25;7.27;;;4.20;;
17763;SDS011;22245;52.832;13.816;2024-01-16T11:18:48;8.77;;;4.57;;
17763;SDS011;22245;52.832;13.816;2024-01-16T11:22:10;8.83;;;4.93;;
17763;SDS011;22245;52.832;13.816;2024-01-16T11:25:34;9.07;;;4.30;;
17763;SDS011;22245;52.832;13.816;2024-01-16T11:28:56;9.70;;;4.40;;
17763;SDS011;22245;52.832;13.816;2024-01-16T11:32:32;8.17;;;4.43;;
17763;SDS011;22245;52.832;13.816;2024-01-16T11:35:58;6.93;;;4.23;;
17763;SDS011;22245;52.832;13.816;2024-01-16T11:39:20;9.37;;;4.57;;
17763;SDS011;22245;52.832;13.816;2024-01-16T11:42:44;6.27;;;4.17;;
17763;SDS011;22245;52.832;13.816;2024-01-16T11:46:06;16.83;;;6.47;;
17763;SDS011;22245;52.832;13.816;2024-01-16T11:49:28;8.07;;;4.80;;
17763;SDS011;22245;52.832;13.816;2024-01-16T11:52:52;16.47;;;7.40;;
17763;SDS011;22245;52.832;13.816;2024-01-16T11:56:27;19.13;;;8.00;;
17763;SDS011;22245;52.832;13.816;2024-01-16T12:00:08;24.83;;;10.13;;
17763;SDS011;22245;52.832;13.816;2024-01-16T12:03:40;11.50;;;6.03;;
17763;SDS011;22245;52.832;13.816;2024-01-16T12:07:01;20.33;;;10.50;;
17763;SDS011;22245;52.832;13.816;2024-01-16T12:10:25;10.30;;;6.23;;
17763;SDS011;22245;52.832;13.816;2024-01-16T12:14:00;15.57;;;8.23;;
17763;SDS011;22245;52.832;13.816;2024-01-16T12:17:24;13.63;;;6.67;;
17763;SDS011;22245;52.832;13.816;2024-01-16T12:20:46;11.37;;;5.73;;
17763;SDS011;22245;52.832;13.816;2024-01-16T12:24:07;14.47;;;7.87;;
17763;SDS011;22245;52.832;13.816;2024-01-16T12:27:33;14.87;;;7.63;;
17763;SDS011;22245;52.832;13.816;2024-01-16T12:30:55;13.40;;;6.37;;
17763;SDS011;22245;52.832;13.816;2024-01-16T12:34:22;12.70;;;6.70;;
17763;SDS011;22245;52.832;13.816;2024-01-16T12:37:43;13.47;;;7.60;;
17763;SDS011;22245;52.832;13.816;2024-01-16T12:41:17;11.97;;;5.77;;
17763;SDS011;22245;52.832;13.816;2024-01-16T12:44:48;12.00;;;5.63;;
17763;SDS011;22245;52.832;13.816;2024-01-16T12:48:10;13.37;;;6.77;;
17763;SDS011;22245;52.832;13.816;2024-01-16T12:51:35;13.60;;;6.60;;
17763;SDS011;22245;52.832;13.816;2024-01-16T12:54:59;12.67;;;7.13;;
17763;SDS011;22245;52.832;13.816;2024-01-16T12:58:21;11.30;;;6.47;;
17763;SDS011;22245;52.832;13.816;2024-01-16T13:01:44;15.03;;;7.63;;
17763;SDS011;22245;52.832;13.816;2024-01-16T13:05:07;14.83;;;8.17;;
17763;SDS011;22245;52.832;13.816;2024-01-16T13:08:30;17.23;;;8.13;;
17763;SDS011;22245;52.832;13.816;2024-01-16T13:11:53;18.13;;;8.20;;
17763;SDS011;22245;52.832;13.816;2024-01-16T13:15:16;11.77;;;6.53;;
17763;SDS011;22245;52.832;13.816;2024-01-16T13:18:37;10.73;;;6.50;;
17763;SDS011;22245;52.832;13.816;2024-01-16T13:21:59;13.57;;;7.10;;
17763;SDS011;22245;52.832;13.816;2024-01-16T13:25:22;17.73;;;6.90;;
17763;SDS011;22245;52.832;13.816;2024-01-16T13:28:43;11.87;;;5.87;;
17763;SDS011;22245;52.832;13.816;2024-01-16T13:32:07;10.67;;;6.07;;
17763;SDS011;22245;52.832;13.816;2024-01-16T13:35:28;13.70;;;6.47;;
17763;SDS011;22245;52.832;13.816;2024-01-16T13:38:50;14.57;;;6.87;;
17763;SDS011;22245;52.832;13.816;2024-01-16T13:42:14;11.43;;;6.30;;
17763;SDS011;22245;52.832;13.816;2024-01-16T13:45:38;9.03;;;5.10;;
17763;SDS011;22245;52.832;13.816;2024-01-16T13:49:01;12.47;;;6.13;;
17763;SDS011;22245;52.832;13.816;2024-01-16T13:52:23;9.90;;;5.40;;
17763;SDS011;22245;52.832;13.816;2024-01-16T13:55:48;18.47;;;6.37;;
17763;SDS011;22245;52.832;13.816;2024-01-16T13:59:10;15.03;;;5.27;;
17763;SDS011;22245;52.832;13.816;2024-01-16T14:02:32;9.57;;;5.30;;
17763;SDS011;22245;52.832;13.816;2024-01-16T14:05:54;11.03;;;5.40;;
17763;SDS011;22245;52.832;13.816;2024-01-16T14:09:16;10.30;;;5.00;;
17763;SDS011;22245;52.832;13.816;2024-01-16T14:12:39;13.50;;;5.87;;
17763;SDS011;22245;52.832;13.816;2024-01-16T14:16:04;14.17;;;6.03;;
17763;SDS011;22245;52.832;13.816;2024-01-16T14:19:26;11.87;;;6.20;;
17763;SDS011;22245;52.832;13.816;2024-01-16T14:22:50;12.73;;;5.03;;
17763;SDS011;22245;52.832;13.816;2024-01-16T14:26:12;12.97;;;5.67;;
17763;SDS011;22245;52.832;13.816;2024-01-16T14:29:34;8.90;;;5.07;;
17763;SDS011;22245;52.832;13.816;2024-01-16T14:33:00;12.70;;;4.93;;
17763;SDS011;22245;52.832;13.816;2024-01-16T14:36:21;9.53;;;4.60;;
17763;SDS011;22245;52.832;13.816;2024-01-16T14:39:43;9.43;;;4.80;;
17763;SDS011;22245;52.832;13.816;2024-01-16T14:43:06;13.60;;;5.40;;
17763;SDS011;22245;52.832;13.816;2024-01-16T14:46:28;15.37;;;5.33;;
17763;SDS011;22245;52.832;13.816;2024-01-16T14:49:51;9.27;;;5.13;;
17763;SDS011;22245;52.832;13.816;2024-01-16T14:53:15;10.53;;;4.40;;
17763;SDS011;22245;52.832;13.816;2024-01-16T14:56:36;11.47;;;5.70;;
17763;SDS011;22245;52.832;13.816;2024-01-16T14:59:58;11.60;;;5.17;;
17763;SDS011;22245;52.832;13.816;2024-01-16T15:03:20;18.67;;;5.30;;
17763;SDS011;22245;52.832;13.816;2024-01-16T15:06:43;15.13;;;6.93;;
17763;SDS011;22245;52.832;13.816;2024-01-16T15:10:05;13.40;;;4.50;;
17763;SDS011;22245;52.832;13.816;2024-01-16T15:13:29;15.03;;;5.30;;
17763;SDS011;22245;52.832;13.816;2024-01-16T15:16:50;9.50;;;4.87;;
17763;SDS011;22245;52.832;13.816;2024-01-16T15:20:12;11.60;;;5.43;;
17763;SDS011;22245;52.832;13.816;2024-01-16T15:23:35;13.47;;;6.20;;
17763;SDS011;22245;52.832;13.816;2024-01-16T15:26:56;15.13;;;4.80;;
17763;SDS011;22245;52.832;13.816;2024-01-16T15:30:18;12.67;;;5.07;;
17763;SDS011;22245;52.832;13.816;2024-01-16T15:33:41;13.03;;;4.60;;
17763;SDS011;22245;52.832;13.816;2024-01-16T15:37:03;7.97;;;4.07;;
17763;SDS011;22245;52.832;13.816;2024-01-16T15:40:26;10.23;;;4.70;;
17763;SDS011;22245;52.832;13.816;2024-01-16T15:43:48;11.27;;;4.13;;
17763;SDS011;22245;52.832;13.816;2024-01-16T15:47:09;9.17;;;4.30;;
17763;SDS011;22245;52.832;13.816;2024-01-16T15:50:31;11.90;;;4.90;;
17763;SDS011;22245;52.832;13.816;2024-01-16T15:53:54;13.00;;;4.63;;
17763;SDS011;22245;52.832;13.816;2024-01-16T15:57:17;9.27;;;4.00;;
17763;SDS011;22245;52.832;13.816;2024-01-16T16:00:39;11.67;;;4.17;;
17763;SDS011;22245;52.832;13.816;2024-01-16T16:04:00;13.70;;;4.47;;
17763;SDS011;22245;52.832;13.816;2024-01-16T16:07:22;20.10;;;6.67;;
17763;SDS011;22245;52.832;13.816;2024-01-16T16:10:45;14.83;;;5.57;;
17763;SDS011;22245;52.832;13.816;2024-01-16T16:14:08;13.57;;;5.40;;
17763;SDS011;22245;52.832;13.816;2024-01-16T16:17:30;11.17;;;4.57;;
17763;SDS011;22245;52.832;13.816;2024-01-16T16:20:51;13.43;;;4.93;;
17763;SDS011;22245;52.832;13.816;2024-01-16T16:24:15;7.33;;;4.23;;
17763;SDS011;22245;52.832;13.816;2024-01-16T16:27:38;16.23;;;7.63;;
17763;SDS011;22245;52.832;13.816;2024-01-16T16:31:01;17.30;;;5.23;;
17763;SDS011;22245;52.832;13.816;2024-01-16T16:34:22;11.27;;;4.67;;
17763;SDS011;22245;52.832;13.816;2024-01-16T16:37:45;7.73;;;4.03;;
17763;SDS011;22245;52.832;13.816;2024-01-16T16:41:07;6.83;;;3.90;;
17763;SDS011;22245;52.832;13.816;2024-01-16T16:44:28;10.60;;;4.40;;
17763;SDS011;22245;52.832;13.816;2024-01-16T16:47:51;11.40;;;5.93;;
17763;SDS011;22245;52.832;13.816;2024-01-16T16:51:13;10.83;;;4.67;;
17763;SDS011;22245;52.832;13.816;2024-01-16T16:54:37;15.10;;;7.00;;
17763;SDS011;22245;52.832;13.816;2024-01-16T16:57:58;9.57;;;5.40;;
17763;SDS011;22245;52.832;13.816;2024-01-16T17:01:19;14.60;;;4.63;;
17763;SDS011;22245;52.832;13.816;2024-01-16T17:04:43;10.20;;;4.63;;
17763;SDS011;22245;52.832;13.816;2024-01-16T17:08:05;13.97;;;4.93;;
17763;SDS011;22245;52.832;13.816;2024-01-16T17:11:26;18.63;;;6.63;;
17763;SDS011;22245;52.832;13.816;2024-01-16T17:14:48;13.60;;;6.00;;
17763;SDS011;22245;52.832;13.816;2024-01-16T17:18:11;11.20;;;4.97;;
17763;SDS011;22245;52.832;13.816;2024-01-16T17:21:35;11.87;;;5.97;;
17763;SDS011;22245;52.832;13.816;2024-01-16T17:24:59;11.43;;;5.50;;
17763;SDS011;22245;52.832;13.816;2024-01-16T17:28:20;13.77;;;4.90;;
17763;SDS011;22245;52.832;13.816;2024-01-16T17:31:44;13.77;;;5.70;;
17763;SDS011;22245;52.832;13.816;2024-01-16T17:35:06;13.33;;;5.80;;
17763;SDS011;22245;52.832;13.816;2024-01-16T17:38:31;15.73;;;6.37;;
17763;SDS011;22245;52.832;13.816;2024-01-16T17:41:53;10.27;;;5.67;;
17763;SDS011;22245;52.832;13.816;2024-01-16T17:45:15;15.23;;;5.67;;
17763;SDS011;22245;52.832;13.816;2024-01-16T17:48:37;13.23;;;5.77;;
17763;SDS011;22245;52.832;13.816;2024-01-16T17:52:00;12.37;;;6.13;;
17763;SDS011;22245;52.832;13.816;2024-01-16T17:55:25;14.33;;;6.20;;
17763;SDS011;22245;52.832;13.816;2024-01-16T17:58:49;14.23;;;6.10;;
17763;SDS011;22245;52.832;13.816;2024-01-16T18:02:10;14.20;;;5.63;;
17763;SDS011;22245;52.832;13.816;2024-01-16T18:05:32;16.10;;;6.37;;
17763;SDS011;22245;52.832;13.816;2024-01-16T18:08:54;12.27;;;6.33;;
17763;SDS011;22245;52.832;13.816;2024-01-16T18:12:17;14.67;;;6.50;;
17763;SDS011;22245;52.832;13.816;2024-01-16T18:15:38;16.23;;;6.80;;
17763;SDS011;22245;52.832;13.816;2024-01-16T18:19:01;14.00;;;5.93;;
17763;SDS011;22245;52.832;13.816;2024-01-16T18:22:23;15.13;;;5.97;;
17763;SDS011;22245;52.832;13.816;2024-01-16T18:25:45;11.93;;;6.03;;
17763;SDS011;22245;52.832;13.816;2024-01-16T18:29:08;13.63;;;5.73;;
17763;SDS011;22245;52.832;13.816;2024-01-16T18:32:30;13.90;;;5.70;;
17763;SDS011;22245;52.832;13.816;2024-01-16T18:35:53;18.33;;;6.63;;
17763;SDS011;22245;52.832;13.816;2024-01-16T18:39:20;12.07;;;5.87;;
17763;SDS011;22245;52.832;13.816;2024-01-16T18:42:42;14.93;;;6.47;;
17763;SDS011;22245;52.832;13.816;2024-01-16T18:46:05;13.87;;;6.57;;
17763;SDS011;22245;52.832;13.816;2024-01-16T18:49:29;15.13;;;6.53;;
17763;SDS011;22245;52.832;13.816;2024-01-16T18:52:50;16.10;;;7.13;;
17763;SDS011;22245;52.832;13.816;2024-01-16T18:56:14;11.67;;;6.17;;
17763;SDS011;22245;52.832;13.816;2024-01-16T18:59:36;15.23;;;6.40;;
17763;SDS011;22245;52.832;13.816;2024-01-16T19:02:59;15.17;;;6.30;;
17763;SDS011;22245;52.832;13.816;2024-01-16T19:06:20;13.10;;;6.30;;
17763;SDS011;22245;52.832;13.816;2024-01-16T19:09:42;13.00;;;6.03;;
17763;SDS011;22245;52.832;13.816;2024-01-16T19:13:04;12.30;;;6.17;;
17763;SDS011;22245;52.832;13.816;2024-01-16T19:16:26;10.83;;;5.17;;
17763;SDS011;22245;52.832;13.816;2024-01-16T19:19:49;14.20;;;5.87;;
17763;SDS011;22245;52.832;13.816;2024-01-16T19:23:10;11.40;;;5.37;;
17763;SDS011;22245;52.832;13.816;2024-01-16T19:26:32;9.47;;;5.73;;
17763;SDS011;22245;52.832;13.816;2024-01-16T19:29:54;14.07;;;5.97;;
17763;SDS011;22245;52.832;13.816;2024-01-16T19:33:15;14.20;;;5.60;;
17763;SDS011;22245;52.832;13.816;2024-01-16T19:36:39;11.80;;;5.13;;
17763;SDS011;22245;52.832;13.816;2024-01-16T19:40:03;14.03;;;6.33;;
17763;SDS011;22245;52.832;13.816;2024-01-16T19:43:27;19.23;;;7.10;;
17763;SDS011;22245;52.832;13.816;2024-01-16T19:46:48;14.10;;;6.43;;
17763;SDS011;22245;52.832;13.816;2024-01-16T19:50:09;14.97;;;5.90;;
17763;SDS011;22245;52.832;13.816;2024-01-16T19:53:43;13.63;;;6.87;;
17763;SDS011;22245;52.832;13.816;2024-01-16T19:57:05;15.37;;;6.00;;
17763;SDS011;22245;52.832;13.816;2024-01-16T20:00:27;13.70;;;6.60;;
17763;SDS011;22245;52.832;13.816;2024-01-16T20:03:48;14.80;;;6.77;;